Time;durP1;ratioP1;P1;durP2;ratioP2;P2;SDS_P1;SDS_P2;PMS_P1;PMS_P2;Temp;Humidity;BMP_temperature;BMP_pressure;BME280_temperature;BME280_humidity;BME280_pressure;Samples;Min_cycle;Max_cycle;Signal;HPM_P1;HPM_P2
2022/01/10 00:00:29;;;;;;;;;33.50;33.50;;;;;4.89;83.38;100229.38;5029658;28;46774;-77
2022/01/10 00:02:56;;;;;;;;;32.75;28.25;;;;;4.89;83.65;100240.75;5023317;28;45457;-76
2022/01/10 00:05:22;;;;;;;;;32.25;26.75;;;;;4.88;83.56;100240.75;5031552;28;45365;-75
2022/01/10 00:07:49;;;;;;;;;45.25;38.50;;;;;4.87;83.68;100239.00;5001215;28;45574;-75
2022/01/10 00:10:15;;;;;;;;;38.75;34.75;;;;;4.86;83.93;100242.47;5020367;28;46479;-76
2022/01/10 00:12:41;;;;;;;;;29.50;24.75;;;;;4.87;83.81;100247.72;5022020;28;45541;-76
2022/01/10 00:15:07;;;;;;;;;35.50;32.25;;;;;4.86;83.83;100255.56;5024746;27;45433;-76
2022/01/10 00:17:36;;;;;;;;;33.25;29.50;;;;;4.85;84.13;100259.09;5018140;28;45565;-76
2022/01/10 00:20:03;;;;;;;;;35.00;30.25;;;;;4.84;84.06;100263.44;5016238;28;45643;-77
2022/01/10 00:22:29;;;;;;;;;35.00;31.00;;;;;4.83;84.19;100266.94;4998350;28;45552;-75
2022/01/10 00:24:54;;;;;;;;;36.50;35.00;;;;;4.85;84.07;100266.94;5020443;28;45582;-76
2022/01/10 00:27:20;;;;;;;;;31.25;30.75;;;;;4.83;84.32;100266.94;5028224;28;45375;-76
2022/01/10 00:29:45;;;;;;;;;37.50;36.25;;;;;4.87;84.79;100266.06;5013404;28;45471;-76
2022/01/10 00:32:11;;;;;;;;;45.25;36.75;;;;;4.92;84.38;100268.66;5029040;28;45491;-75
2022/01/10 00:34:36;;;;;;;;;47.75;45.00;;;;;4.92;84.25;100273.91;5017867;28;45490;-76
2022/01/10 00:37:01;;;;;;;;;46.00;40.50;;;;;4.92;84.72;100277.41;5018996;28;45371;-75
2022/01/10 00:39:27;;;;;;;;;39.75;36.50;;;;;4.95;84.38;100292.22;5024546;28;46168;-76
2022/01/10 00:41:55;;;;;;;;;43.00;39.75;;;;;4.98;83.91;100298.34;5017953;28;50392;-75
2022/01/10 00:44:25;;;;;;;;;54.50;45.00;;;;;5.02;84.11;100306.22;5008506;28;45466;-74
2022/01/10 00:46:52;;;;;;;;;45.00;40.50;;;;;5.02;84.14;100304.44;5014596;28;45861;-75
2022/01/10 00:49:18;;;;;;;;;44.75;39.50;;;;;5.04;84.11;100307.97;5025035;28;45443;-74
2022/01/10 00:51:43;;;;;;;;;35.75;31.25;;;;;5.03;83.77;100294.88;5032350;28;45408;-75
2022/01/10 00:54:09;;;;;;;;;54.25;44.50;;;;;5.07;83.76;100307.97;5015781;28;45500;-75
2022/01/10 00:56:34;;;;;;;;;40.75;37.50;;;;;5.07;84.03;100304.44;5027162;28;45415;-75
2022/01/10 00:59:00;;;;;;;;;42.75;37.75;;;;;5.08;83.85;100298.34;5013416;28;47922;-74
2022/01/10 01:01:25;;;;;;;;;47.00;40.50;;;;;5.04;83.63;100289.63;5019863;28;45399;-74
2022/01/10 01:03:50;;;;;;;;;41.75;35.25;;;;;5.11;83.75;100309.69;5029137;28;45543;-74
2022/01/10 01:06:16;;;;;;;;;43.50;39.25;;;;;5.10;83.71;100302.72;4996254;28;45386;-75
2022/01/10 01:08:43;;;;;;;;;32.50;26.50;;;;;5.12;84.20;100310.56;5015835;28;46106;-76
2022/01/10 01:14:21;;;;;;;;;47.25;42.00;;;;;5.14;84.22;100321.91;4972226;28;45550;-75
2022/01/10 01:16:56;;;;;;;;;38.00;34.00;;;;;5.16;83.98;100336.75;4953424;28;45701;-75
2022/01/10 01:24:48;;;;;;;;;42.25;34.25;;;;;5.15;84.16;100353.34;4898235;28;45465;-75
2022/01/10 01:27:13;;;;;;;;;54.50;45.25;;;;;5.14;84.45;100351.59;4901549;28;45648;-75
2022/01/10 01:29:38;;;;;;;;;29.50;26.50;;;;;5.13;83.90;100355.09;4907151;28;46336;-75
2022/01/10 01:32:04;;;;;;;;;37.25;30.00;;;;;5.18;83.84;100362.97;4904778;28;45402;-76
2022/01/10 01:34:29;;;;;;;;;33.25;30.75;;;;;5.16;84.08;100360.34;4900327;28;45437;-75
2022/01/10 01:36:56;;;;;;;;;38.00;33.50;;;;;5.20;83.78;100369.06;4901462;28;45579;-75
2022/01/10 01:39:25;;;;;;;;;36.50;34.25;;;;;5.19;84.08;100369.06;4906305;28;45584;-75
2022/01/10 01:41:54;;;;;;;;;43.25;38.50;;;;;5.22;84.15;100384.78;4906710;28;45482;-75
2022/01/10 01:44:20;;;;;;;;;37.75;34.00;;;;;5.25;84.03;100384.78;4906690;28;45476;-75
2022/01/10 01:46:46;;;;;;;;;38.50;34.50;;;;;5.26;83.95;100397.88;4903276;28;45506;-74
2022/01/10 01:49:12;;;;;;;;;33.00;30.25;;;;;5.29;83.42;100397.00;4956663;28;45375;-75
2022/01/10 01:51:38;;;;;;;;;33.25;33.00;;;;;5.31;84.01;100397.88;4962620;28;45643;-74
2022/01/10 01:54:05;;;;;;;;;38.25;32.25;;;;;5.33;83.80;100404.00;4961550;28;45380;-74
2022/01/10 01:56:30;;;;;;;;;36.25;33.25;;;;;5.36;83.47;100409.25;4969959;28;45520;-76
2022/01/10 01:58:56;;;;;;;;;40.50;37.00;;;;;5.38;83.24;100406.63;5004889;28;46826;-75
2022/01/10 02:01:23;;;;;;;;;42.75;33.00;;;;;5.36;83.37;100393.53;5031387;28;45523;-75
2022/01/10 02:03:51;;;;;;;;;32.00;31.00;;;;;5.40;83.37;100402.25;5024882;28;45361;-76
2022/01/10 02:06:17;;;;;;;;;35.00;29.00;;;;;5.40;83.50;100403.09;5022991;28;45425;-76
2022/01/10 02:08:43;;;;;;;;;46.75;41.50;;;;;5.42;83.06;100408.34;5012566;28;45587;-75
2022/01/10 02:11:11;;;;;;;;;38.25;29.50;;;;;5.42;83.12;100408.34;5012271;28;45935;-75
2022/01/10 02:13:38;;;;;;;;;31.25;29.50;;;;;5.40;83.29;100423.22;5014230;27;45355;-76
2022/01/10 02:16:05;;;;;;;;;25.50;25.50;;;;;5.37;83.13;100416.22;5012836;28;45303;-75
2022/01/10 02:18:32;;;;;;;;;29.50;29.50;;;;;5.34;82.69;100414.50;5022484;28;45545;-74
2022/01/10 02:21:00;;;;;;;;;25.50;24.75;;;;;5.33;83.19;100425.84;5018494;28;45493;-75
2022/01/10 02:23:27;;;;;;;;;40.25;35.00;;;;;5.29;83.19;100428.47;5013603;28;45411;-74
2022/01/10 02:25:54;;;;;;;;;35.00;30.25;;;;;5.25;83.09;100422.34;5012356;28;45540;-74
2022/01/10 02:28:20;;;;;;;;;35.00;28.50;;;;;5.25;83.18;100424.09;5005921;27;47809;-75
2022/01/10 02:30:46;;;;;;;;;40.75;35.75;;;;;5.20;83.51;100426.72;5017926;28;45432;-74
2022/01/10 02:33:12;;;;;;;;;41.50;35.00;;;;;5.14;83.52;100417.09;5023032;28;45420;-76
2022/01/10 02:35:48;;;;;;;;;40.50;33.00;;;;;5.16;83.37;100427.56;5022457;28;45539;-74
2022/01/10 02:38:13;;;;;;;;;39.50;34.50;;;;;5.11;83.56;100422.34;5016354;28;46241;-75
2022/01/10 02:40:39;;;;;;;;;38.00;33.00;;;;;5.09;83.36;100421.47;4993002;28;46446;-77
2022/01/10 02:43:08;;;;;;;;;33.00;29.50;;;;;5.10;83.60;100433.72;5013062;28;45484;-74
2022/01/10 02:45:34;;;;;;;;;33.50;30.50;;;;;5.08;83.75;100438.06;5029056;28;45633;-75
2022/01/10 02:47:59;;;;;;;;;30.25;30.00;;;;;5.05;83.85;100434.56;5001429;28;45476;-75
2022/01/10 02:50:25;;;;;;;;;20.75;20.75;;;;;5.02;83.84;100438.06;5018046;27;45482;-75
2022/01/10 02:52:52;;;;;;;;;24.00;23.50;;;;;5.00;83.95;100446.81;5018120;28;45506;-77
2022/01/10 02:55:18;;;;;;;;;29.00;27.50;;;;;4.96;83.90;100452.06;5022384;28;45436;-75
2022/01/10 02:57:44;;;;;;;;;27.75;27.00;;;;;4.85;83.80;100442.44;5014103;28;45503;-76
2022/01/10 03:00:13;;;;;;;;;26.50;26.50;;;;;4.88;84.27;100459.00;5014263;28;45390;-74
2022/01/10 03:02:41;;;;;;;;;31.75;29.00;;;;;4.85;84.29;100466.84;5017370;27;45421;-76
2022/01/10 03:05:07;;;;;;;;;38.00;35.00;;;;;4.83;84.44;100465.09;5029860;27;45440;-75
2022/01/10 03:07:33;;;;;;;;;41.50;32.50;;;;;4.80;84.24;100473.84;5014676;28;47081;-75
2022/01/10 03:09:58;;;;;;;;;30.25;26.25;;;;;4.76;85.16;100472.94;5011332;27;45394;-75
2022/01/10 03:12:24;;;;;;;;;39.25;33.75;;;;;4.74;84.88;100474.69;5073923;27;45381;-74
2022/01/10 03:14:50;;;;;;;;;33.50;32.00;;;;;4.74;84.97;100477.31;5021049;28;45481;-76
2022/01/10 03:17:15;;;;;;;;;39.25;33.00;;;;;4.73;84.91;100480.78;5013691;28;45470;-75
2022/01/10 03:19:41;;;;;;;;;2.50;0.00;;;;;4.73;85.18;100496.50;5018878;28;45440;-75
2022/01/10 03:22:08;;;;;;;;;30.00;27.50;;;;;4.74;84.87;100479.94;5017925;28;45495;-76
2022/01/10 03:24:36;;;;;;;;;30.00;26.50;;;;;4.72;85.24;100489.53;5015933;28;45590;-75
2022/01/10 03:27:02;;;;;;;;;32.25;31.25;;;;;4.70;84.95;100480.78;5010740;28;46595;-75
2022/01/10 03:29:28;;;;;;;;;32.00;28.50;;;;;4.67;85.13;100493.88;5021125;28;45567;-75
2022/01/10 03:31:53;;;;;;;;;30.00;23.50;;;;;4.66;85.16;100497.38;5028140;28;45493;-75
2022/01/10 03:34:19;;;;;;;;;27.75;27.00;;;;;4.62;85.52;100495.63;5019604;28;45430;-75
2022/01/10 03:36:44;;;;;;;;;46.00;34.25;;;;;4.64;85.35;100493.88;5012512;28;46287;-75
2022/01/10 03:39:12;;;;;;;;;34.75;29.25;;;;;4.63;85.32;100503.47;5017566;28;45459;-74
2022/01/10 03:41:38;;;;;;;;;27.25;27.00;;;;;4.61;85.27;100502.56;5024998;28;45285;-75
2022/01/10 03:44:05;;;;;;;;;39.00;31.25;;;;;4.62;85.88;100511.31;5029567;28;45618;-75
2022/01/10 03:46:32;;;;;;;;;41.00;33.50;;;;;4.60;85.76;100505.19;5014573;28;45437;-74
2022/01/10 03:49:01;;;;;;;;;41.50;37.00;;;;;4.60;85.88;100510.44;5029961;28;45487;-75
2022/01/10 03:51:27;;;;;;;;;42.25;31.00;;;;;4.60;85.86;100518.28;5011597;28;45488;-75
2022/01/10 03:53:53;;;;;;;;;36.00;31.75;;;;;4.59;85.51;100527.03;5010770;28;45335;-75
2022/01/10 03:56:20;;;;;;;;;37.50;31.50;;;;;4.56;85.79;100524.41;5026939;28;45372;-75
2022/01/10 03:58:45;;;;;;;;;33.50;26.50;;;;;4.52;85.73;100525.25;5028848;28;45467;-75
2022/01/10 04:01:12;;;;;;;;;31.25;28.25;;;;;4.50;85.84;100524.38;5025154;28;45391;-75
2022/01/10 04:03:39;;;;;;;;;42.50;37.25;;;;;4.48;86.10;100533.94;5015059;28;45586;-76
2022/01/10 04:06:05;;;;;;;;;35.00;30.75;;;;;4.45;85.91;100535.69;5017622;28;45424;-75
2022/01/10 04:08:30;;;;;;;;;26.75;25.75;;;;;4.44;85.96;100533.94;5013041;28;45763;-75
2022/01/10 04:10:57;;;;;;;;;35.25;26.50;;;;;4.43;85.96;100540.06;5013959;28;45458;-75
2022/01/10 04:13:23;;;;;;;;;30.25;27.25;;;;;4.43;86.29;100542.66;5013891;27;45462;-74
2022/01/10 04:15:48;;;;;;;;;29.50;25.75;;;;;4.40;86.04;100547.91;5019798;28;47493;-76
2022/01/10 04:18:14;;;;;;;;;30.75;27.25;;;;;4.40;86.64;100549.63;5020813;28;45455;-75
2022/01/10 04:20:40;;;;;;;;;35.50;30.50;;;;;4.39;86.45;100553.97;5024658;28;45407;-74
2022/01/10 04:23:05;;;;;;;;;33.25;28.50;;;;;4.36;86.54;100566.19;5018514;28;45560;-76
2022/01/10 04:25:30;;;;;;;;;27.75;24.00;;;;;4.34;86.37;100563.56;5014415;28;45479;-76
2022/01/10 04:27:56;;;;;;;;;24.75;22.50;;;;;4.30;86.70;100548.72;5025104;28;45612;-76
2022/01/10 04:30:21;;;;;;;;;38.00;31.00;;;;;4.27;86.99;100570.50;5021393;28;45667;-74
2022/01/10 04:32:48;;;;;;;;;40.50;34.25;;;;;4.31;86.67;100573.13;5032279;28;45545;-75
2022/01/10 04:35:13;;;;;;;;;32.50;31.00;;;;;4.27;87.09;100569.63;5024158;28;46392;-75
2022/01/10 04:37:39;;;;;;;;;42.75;39.75;;;;;4.27;86.38;100575.72;5028402;27;45539;-73
2022/01/10 04:40:06;;;;;;;;;33.25;24.25;;;;;4.21;87.07;100570.44;5024811;27;45487;-75
2022/01/10 04:42:31;;;;;;;;;42.00;37.00;;;;;4.24;86.75;100574.84;5013358;28;45508;-75
2022/01/10 04:44:57;;;;;;;;;36.75;34.25;;;;;4.21;87.27;100580.06;5005272;28;45542;-74
2022/01/10 04:47:22;;;;;;;;;38.25;34.50;;;;;4.23;87.60;100594.00;5016238;28;45430;-75
2022/01/10 04:52:19;;;;;;;;;36.75;33.75;;;;;4.19;87.63;100608.84;5015113;28;45495;-76
2022/01/10 04:54:44;;;;;;;;;46.50;41.50;;;;;4.18;87.56;100608.81;5022728;28;45524;-75
2022/01/10 04:57:10;;;;;;;;;27.25;26.50;;;;;4.16;87.30;100610.53;5029111;28;45471;-74
2022/01/10 04:59:35;;;;;;;;;30.75;26.50;;;;;4.13;87.42;100613.13;5012331;28;45668;-75
2022/01/10 05:02:01;;;;;;;;;40.00;36.00;;;;;4.12;87.30;100627.09;5017603;28;45392;-75
2022/01/10 05:04:26;;;;;;;;;40.50;32.50;;;;;4.08;87.53;100616.59;5032935;28;45492;-75
2022/01/10 05:06:51;;;;;;;;;36.50;32.50;;;;;4.08;87.20;100621.84;5034069;28;45403;-75
2022/01/10 05:09:18;;;;;;;;;35.00;30.00;;;;;4.07;87.50;100629.69;5029262;28;45563;-75
2022/01/10 05:11:45;;;;;;;;;27.00;26.00;;;;;4.06;88.11;100633.16;5019629;28;45433;-75
2022/01/10 05:14:10;;;;;;;;;53.00;39.75;;;;;4.04;87.84;100630.53;5027958;27;46272;-75
2022/01/10 05:16:36;;;;;;;;;39.00;34.50;;;;;4.03;87.81;100644.44;5025754;28;45464;-75
2022/01/10 05:19:01;;;;;;;;;27.75;24.75;;;;;4.02;87.37;100642.69;5023476;28;45441;-76
2022/01/10 05:21:26;;;;;;;;;42.25;36.25;;;;;4.01;87.72;100638.34;5029486;28;45563;-76
2022/01/10 05:23:52;;;;;;;;;34.25;31.25;;;;;4.01;87.63;100646.19;5022861;28;45406;-76
2022/01/10 05:26:18;;;;;;;;;39.00;35.00;;;;;4.02;88.05;100653.16;4998918;28;45537;-76
2022/01/10 05:28:43;;;;;;;;;33.00;29.50;;;;;3.99;87.74;100650.50;5028748;28;45523;-75
2022/01/10 05:31:08;;;;;;;;;47.50;35.25;;;;;3.97;87.83;100654.88;5031556;28;45440;-75
2022/01/10 05:33:34;;;;;;;;;45.25;36.50;;;;;3.94;87.87;100660.06;5031714;28;46226;-76
2022/01/10 05:36:00;;;;;;;;;42.75;39.75;;;;;3.93;87.92;100666.16;5019079;28;45550;-76
2022/01/10 05:38:25;;;;;;;;;34.75;30.00;;;;;3.91;87.70;100676.59;5015573;28;45592;-77
2022/01/10 05:40:50;;;;;;;;;37.50;35.50;;;;;3.89;87.98;100674.88;5091749;27;45678;-75
2022/01/10 05:43:16;;;;;;;;;30.50;28.25;;;;;3.91;88.16;100675.75;5020052;28;46364;-75
2022/01/10 05:45:44;;;;;;;;;41.00;34.00;;;;;3.88;88.21;100686.19;5026115;28;45562;-75
2022/01/10 05:48:13;;;;;;;;;30.75;24.25;;;;;3.74;88.18;100668.63;5005710;28;45563;-75
2022/01/10 05:50:42;;;;;;;;;37.25;32.50;;;;;3.85;88.14;100694.00;5020646;28;45430;-76
2022/01/10 05:53:08;;;;;;;;;35.50;31.75;;;;;3.84;87.77;100694.84;5032931;28;45458;-75
2022/01/10 05:55:36;;;;;;;;;34.50;30.50;;;;;3.82;88.21;100697.44;5023769;28;45510;-75
2022/01/10 05:58:02;;;;;;;;;39.75;38.00;;;;;3.73;87.97;100690.41;5026732;28;45571;-75
2022/01/10 06:00:28;;;;;;;;;39.00;35.00;;;;;3.79;88.12;100712.25;5004839;28;45919;-75
2022/01/10 06:02:53;;;;;;;;;40.75;32.25;;;;;3.77;88.64;100720.06;5018629;27;45515;-76
2022/01/10 06:05:19;;;;;;;;;42.00;38.00;;;;;3.73;88.73;100718.28;5032204;28;45530;-74
2022/01/10 06:07:45;;;;;;;;;36.75;31.00;;;;;3.73;88.62;100729.63;5029800;28;45439;-74
2022/01/10 06:10:11;;;;;;;;;38.75;30.25;;;;;3.70;88.45;100728.69;5013218;28;45411;-76
2022/01/10 06:12:36;;;;;;;;;39.50;33.25;;;;;3.70;88.82;100734.81;5032602;27;46261;-76
2022/01/10 06:15:03;;;;;;;;;34.00;27.50;;;;;3.63;88.96;100727.78;5028645;28;45486;-74
2022/01/10 06:17:28;;;;;;;;;34.25;31.75;;;;;3.67;88.45;100765.28;5013355;28;45364;-75
2022/01/10 06:19:53;;;;;;;;;34.00;30.25;;;;;3.66;88.67;100767.03;5022850;28;45649;-76
2022/01/10 06:22:19;;;;;;;;;25.25;21.00;;;;;3.66;88.09;100777.47;5018151;28;45421;-78
2022/01/10 06:24:44;;;;;;;;;37.50;29.50;;;;;3.62;88.27;100773.06;5016057;28;45534;-78
2022/01/10 06:27:10;;;;;;;;;36.50;27.50;;;;;3.64;88.48;100781.78;5099121;27;45346;-78
2022/01/10 06:29:35;;;;;;;;;37.75;32.75;;;;;3.59;87.94;100788.72;5022255;27;45384;-78
2022/01/10 06:32:00;;;;;;;;;38.50;35.50;;;;;3.61;88.37;100788.72;5019987;28;45397;-78
2022/01/10 06:34:26;;;;;;;;;27.50;26.75;;;;;3.58;88.12;100786.94;4983482;28;45574;-78
2022/01/10 06:36:53;;;;;;;;;43.50;36.00;;;;;3.60;88.48;100784.34;5033743;28;45487;-78
2022/01/10 06:39:18;;;;;;;;;45.75;33.00;;;;;3.61;88.01;100796.56;5026272;27;45631;-80
2022/01/10 06:41:43;;;;;;;;;30.00;25.00;;;;;3.59;87.70;100799.16;5022741;28;45485;-79
2022/01/10 06:44:09;;;;;;;;;39.00;27.00;;;;;3.51;88.23;100800.81;4995461;28;45516;-79
2022/01/10 06:46:34;;;;;;;;;34.00;30.25;;;;;3.51;88.28;100803.44;5004990;28;45742;-78
2022/01/10 06:49:00;;;;;;;;;43.00;39.75;;;;;3.48;88.69;100811.25;5029853;28;45354;-79
2022/01/10 06:51:25;;;;;;;;;37.00;36.25;;;;;3.49;88.05;100812.97;5031099;28;45451;-78
2022/01/10 06:53:54;;;;;;;;;36.50;32.75;;;;;3.49;88.34;100826.03;5024330;28;45430;-83
2022/01/10 06:56:19;;;;;;;;;37.00;31.00;;;;;3.51;87.87;100840.91;5001416;28;45463;-78
2022/01/10 06:58:45;;;;;;;;;41.00;33.50;;;;;3.51;88.27;100847.88;5016727;28;45510;-78
2022/01/10 07:01:17;;;;;;;;;42.25;32.75;;;;;3.49;88.33;100860.94;5019914;28;46309;-77
2022/01/10 07:03:43;;;;;;;;;30.75;30.50;;;;;3.50;88.25;100860.03;5018887;28;45455;-77
2022/01/10 07:06:08;;;;;;;;;74.75;60.00;;;;;3.48;87.60;100863.53;5023953;28;45376;-77
2022/01/10 07:08:33;;;;;;;;;40.25;31.00;;;;;3.51;87.75;100879.25;4996680;27;45540;-77
2022/01/10 07:10:59;;;;;;;;;40.50;34.50;;;;;3.41;88.06;100866.91;5023071;28;45379;-78
2022/01/10 07:13:24;;;;;;;;;31.25;17.25;;;;;3.50;88.05;100887.94;5034798;27;45347;-77
2022/01/10 07:15:53;;;;;;;;;35.00;25.75;;;;;3.49;87.73;100899.22;5012175;28;45421;-79
2022/01/10 07:18:18;;;;;;;;;22.00;15.25;;;;;3.50;88.16;100904.47;5016959;28;45459;-79
2022/01/10 07:20:44;;;;;;;;;13.00;13.00;;;;;3.49;88.18;100907.97;5022644;28;46158;-78
2022/01/10 07:23:09;;;;;;;;;11.50;9.75;;;;;3.51;87.62;100913.22;5021206;28;45401;-78
2022/01/10 07:25:35;;;;;;;;;15.00;11.75;;;;;3.47;87.76;100921.88;5024287;28;45410;-80
2022/01/10 07:28:00;;;;;;;;;14.00;12.50;;;;;3.46;88.21;100922.72;5002624;28;45573;-79
2022/01/10 07:30:26;;;;;;;;;23.25;18.50;;;;;3.49;87.95;100944.56;5019469;28;46164;-80
2022/01/10 07:32:53;;;;;;;;;20.50;17.50;;;;;3.45;88.16;100947.97;5018683;28;45448;-79
2022/01/10 07:35:18;;;;;;;;;19.50;19.50;;;;;3.35;87.89;100940.84;5022856;28;45567;-79
2022/01/10 07:37:43;;;;;;;;;15.25;13.75;;;;;3.33;87.90;100948.66;5018032;28;45441;-79
2022/01/10 07:40:09;;;;;;;;;10.00;10.00;;;;;3.34;88.61;100959.97;5023555;28;46263;-80
2022/01/10 07:42:35;;;;;;;;;7.50;7.00;;;;;3.28;87.61;100970.34;5025417;28;45402;-80
2022/01/10 07:45:02;;;;;;;;;10.25;10.25;;;;;3.22;87.78;100976.38;5038362;28;45377;-79
2022/01/10 07:47:28;;;;;;;;;12.50;7.50;;;;;3.18;87.42;100974.56;5032516;28;45475;-79
2022/01/10 07:49:53;;;;;;;;;13.75;9.50;;;;;3.14;87.86;100981.47;5019822;28;45435;-79
2022/01/10 07:52:19;;;;;;;;;13.50;13.25;;;;;3.11;87.58;100994.47;5014375;27;45511;-78
2022/01/10 07:54:44;;;;;;;;;10.25;9.25;;;;;3.06;86.97;100996.13;5011175;28;45446;-77
2022/01/10 07:57:10;;;;;;;;;21.25;21.00;;;;;3.05;86.92;101009.16;5009138;28;45382;-79
2022/01/10 07:59:35;;;;;;;;;15.75;11.50;;;;;2.96;87.34;101015.06;5019104;28;45410;-83
2022/01/10 08:02:02;;;;;;;;;16.75;12.50;;;;;3.02;88.09;101026.53;5017600;28;45443;-80
2022/01/10 08:04:27;;;;;;;;;21.00;14.50;;;;;3.01;87.84;101030.00;5023989;27;45284;-78
2022/01/10 08:06:53;;;;;;;;;21.75;15.00;;;;;2.99;88.23;101026.47;5031844;28;45386;-79
2022/01/10 08:09:18;;;;;;;;;23.00;19.50;;;;;3.05;87.37;101043.97;5024567;28;46137;-78
2022/01/10 08:11:43;;;;;;;;;34.00;23.00;;;;;2.95;86.94;101036.84;5024648;28;45368;-79
2022/01/10 08:14:10;;;;;;;;;47.25;45.00;;;;;2.86;86.54;101039.28;5026670;27;45456;-80
2022/01/10 08:16:35;;;;;;;;;23.75;12.50;;;;;2.78;87.30;101067.81;5022408;28;45294;-78
2022/01/10 08:19:01;;;;;;;;;61.75;53.75;;;;;2.67;86.83;101051.97;5025827;28;48251;-78
2022/01/10 08:21:26;;;;;;;;;85.00;70.67;;;;;2.65;87.55;101046.69;5019733;28;46650;-78
2022/01/10 08:23:52;;;;;;;;;19.00;16.25;;;;;2.66;88.22;101048.47;4995652;28;45403;-79
2022/01/10 08:26:17;;;;;;;;;18.75;13.25;;;;;2.71;88.35;101051.19;5041221;27;45501;-79
2022/01/10 08:28:43;;;;;;;;;21.00;20.00;;;;;2.77;87.52;101060.88;5016536;28;45489;-79
2022/01/10 08:31:11;;;;;;;;;21.75;19.25;;;;;2.81;87.51;101065.31;5017256;28;46105;-78
2022/01/10 08:33:37;;;;;;;;;40.00;39.00;;;;;2.81;87.16;101062.69;5007575;28;45409;-79
2022/01/10 08:36:03;;;;;;;;;92.33;76.00;;;;;2.89;87.52;101079.38;5019386;28;45528;-79
2022/01/10 08:38:28;;;;;;;;;46.25;43.75;;;;;2.94;86.77;101085.56;5022564;28;45736;-79
2022/01/10 08:40:54;;;;;;;;;29.50;22.00;;;;;2.95;86.75;101087.34;5015419;28;45545;-79
2022/01/10 08:43:19;;;;;;;;;12.25;8.00;;;;;2.96;87.02;101089.09;5014492;28;45483;-80
2022/01/10 08:45:45;;;;;;;;;20.50;14.50;;;;;2.96;86.28;101093.44;5020231;28;45430;-78
2022/01/10 08:48:11;;;;;;;;;9.50;8.50;;;;;2.96;86.14;101099.56;5021762;28;45505;-79
2022/01/10 08:50:37;;;;;;;;;13.00;8.00;;;;;2.96;85.89;101094.31;5019918;27;45423;-78
2022/01/10 08:53:05;;;;;;;;;12.25;3.00;;;;;2.94;86.20;101101.22;5011161;28;45481;-79
2022/01/10 08:55:30;;;;;;;;;16.00;15.00;;;;;2.94;87.13;101096.00;5019528;28;45565;-77
2022/01/10 08:57:56;;;;;;;;;17.25;12.50;;;;;3.00;86.51;101113.53;5026064;28;46086;-78
2022/01/10 09:00:21;;;;;;;;;12.00;12.00;;;;;2.95;86.51;101131.72;5026745;28;45552;-79
2022/01/10 09:02:47;;;;;;;;;16.50;12.50;;;;;2.89;86.91;101118.56;5020691;28;45432;-79
2022/01/10 09:05:13;;;;;;;;;18.00;13.25;;;;;2.96;87.16;101132.59;5018056;28;45455;-78
2022/01/10 09:07:38;;;;;;;;;12.00;6.50;;;;;2.96;87.06;101136.13;5015738;28;46211;-78
2022/01/10 09:10:05;;;;;;;;;31.00;27.25;;;;;2.96;87.06;101143.94;5018565;28;45400;-79
2022/01/10 09:12:31;;;;;;;;;42.00;37.50;;;;;2.95;87.56;101150.00;5026596;28;45422;-79
2022/01/10 09:14:56;;;;;;;;;52.50;48.00;;;;;3.01;87.02;101154.50;5024346;28;45587;-79
2022/01/10 09:17:22;;;;;;;;;37.50;35.75;;;;;3.01;87.12;101150.13;5013564;28;47661;-79
2022/01/10 09:19:47;;;;;;;;;10.00;9.00;;;;;3.02;87.31;101151.91;5024406;28;45488;-79
2022/01/10 09:22:14;;;;;;;;;31.25;28.00;;;;;3.11;87.61;101150.31;5013540;28;45276;-79
2022/01/10 09:24:40;;;;;;;;;55.75;50.50;;;;;3.21;88.25;101162.72;4999294;28;45650;-79
2022/01/10 09:27:05;;;;;;;;;80.33;64.67;;;;;3.29;87.14;101171.56;5030017;28;46107;-79
2022/01/10 09:29:31;;;;;;;;;55.25;44.75;;;;;3.18;86.19;101147.84;5015346;28;45540;-79
2022/01/10 09:31:56;;;;;;;;;15.75;8.00;;;;;3.36;86.23;101168.22;5031376;27;45491;-80
2022/01/10 09:34:22;;;;;;;;;13.00;8.25;;;;;3.41;86.52;101172.66;4996456;28;45424;-78
2022/01/10 09:36:48;;;;;;;;;14.00;14.00;;;;;3.50;86.45;101175.44;5017955;28;45421;-80
2022/01/10 09:39:14;;;;;;;;;92.33;74.67;;;;;3.59;85.79;101178.22;5026615;28;45593;-79
2022/01/10 09:41:40;;;;;;;;;72.67;60.67;;;;;3.64;85.61;101184.41;5027249;28;45461;-74
2022/01/10 09:44:08;;;;;;;;;6.25;5.75;;;;;3.66;85.39;101190.56;5024896;28;45425;-76
2022/01/10 09:46:35;;;;;;;;;15.00;9.00;;;;;3.62;85.26;101196.59;5013229;28;46092;-75
2022/01/10 09:49:02;;;;;;;;;11.25;11.00;;;;;3.65;85.23;101201.88;5017147;28;45426;-76
2022/01/10 09:51:29;;;;;;;;;6.25;4.50;;;;;3.62;85.10;101201.81;5012507;28;45415;-76
2022/01/10 09:53:57;;;;;;;;;19.00;17.50;;;;;3.60;84.56;101214.00;5020682;28;45548;-75
2022/01/10 09:56:24;;;;;;;;;9.00;7.25;;;;;3.58;85.23;101207.84;5023017;28;45470;-76
2022/01/10 09:58:50;;;;;;;;;11.75;8.50;;;;;3.61;84.55;101223.56;5031542;28;45474;-76
2022/01/10 10:01:19;;;;;;;;;21.25;21.25;;;;;3.62;84.75;101233.19;5002095;28;45484;-75
2022/01/10 10:03:47;;;;;;;;;7.50;6.00;;;;;3.66;85.32;101224.56;5011166;28;45402;-76
2022/01/10 10:06:14;;;;;;;;;11.75;10.50;;;;;3.66;84.58;101231.50;5009447;28;46207;-76
2022/01/10 10:08:40;;;;;;;;;15.25;15.25;;;;;3.66;85.18;101240.25;5028989;27;45469;-75
2022/01/10 10:11:08;;;;;;;;;15.50;14.00;;;;;3.69;85.49;101244.63;5022722;28;45493;-75
2022/01/10 10:13:54;;;;;;;;;14.75;14.75;;;;;3.73;85.11;101249.97;5012599;28;45651;-76
2022/01/10 10:16:26;;;;;;;;;13.50;12.25;;;;;3.74;84.93;101249.09;5010680;28;45780;-77
2022/01/10 10:18:53;;;;;;;;;10.25;10.25;;;;;3.78;85.30;101243.94;5017512;28;45523;-77
2022/01/10 10:21:20;;;;;;;;;10.75;10.75;;;;;3.83;84.65;101247.53;5014711;28;45850;-75
2022/01/10 10:23:48;;;;;;;;;12.25;9.25;;;;;3.87;85.31;101249.34;5019815;28;45421;-76
2022/01/10 10:26:25;;;;;;;;;11.25;11.25;;;;;3.86;84.33;101247.59;5024829;28;46016;-75
2022/01/10 10:28:53;;;;;;;;;12.25;9.25;;;;;3.81;84.27;101252.75;5017488;28;45362;-76
2022/01/10 10:31:34;;;;;;;;;14.75;14.75;;;;;3.75;84.76;101247.41;5020144;28;45431;-76
2022/01/10 10:34:02;;;;;;;;;16.50;9.50;;;;;3.79;85.13;101259.66;5015873;28;45438;-76
2022/01/10 10:36:31;;;;;;;;;15.50;9.25;;;;;3.84;85.14;101260.63;5038979;27;45938;-76
2022/01/10 10:38:57;;;;;;;;;10.50;8.00;;;;;3.77;85.28;101248.28;5046675;27;45871;-76
2022/01/10 10:41:23;;;;;;;;;16.75;15.00;;;;;3.83;85.30;101261.47;5047352;27;45593;-76
2022/01/10 10:43:54;;;;;;;;;11.50;10.00;;;;;3.84;85.06;101270.19;5035819;27;45471;-76
2022/01/10 10:46:20;;;;;;;;;16.25;13.00;;;;;3.83;85.54;101261.47;5023680;27;45533;-78
2022/01/10 10:48:53;;;;;;;;;16.00;11.75;;;;;3.83;85.40;101265.84;5045166;27;45519;-78
2022/01/10 10:51:19;;;;;;;;;32.25;28.75;;;;;3.84;85.94;101276.34;5012454;28;45419;-78
2022/01/10 10:53:45;;;;;;;;;17.00;12.50;;;;;3.91;85.74;101274.69;5068951;27;45681;-77
2022/01/10 10:56:10;;;;;;;;;41.33;40.00;;;;;3.93;85.48;101265.13;5033192;28;46366;-77
2022/01/10 10:58:39;;;;;;;;;68.50;58.75;;;;;4.06;88.39;101282.81;5031505;27;45427;-76
2022/01/10 11:01:05;;;;;;;;;93.00;75.00;;;;;4.15;86.60;101281.25;5032044;28;45378;-78
2022/01/10 11:03:31;;;;;;;;;85.33;67.33;;;;;4.03;85.41;101267.06;5029667;28;45529;-77
2022/01/10 11:05:59;;;;;;;;;82.67;68.33;;;;;4.07;85.47;101279.38;5033830;28;46131;-77
2022/01/10 11:08:28;;;;;;;;;80.67;67.67;;;;;4.15;85.90;101291.72;5017728;27;45505;-76
2022/01/10 11:10:54;;;;;;;;;78.33;66.33;;;;;4.19;85.21;101293.50;5023129;27;45517;-77
2022/01/10 11:13:23;;;;;;;;;84.67;70.00;;;;;4.24;85.36;101291.88;5055019;27;45537;-77
2022/01/10 11:15:49;;;;;;;;;18.00;15.75;;;;;4.23;85.73;101274.38;5035697;27;46099;-77
2022/01/10 11:18:15;;;;;;;;;21.00;18.00;;;;;4.29;85.34;101284.97;4999442;28;45438;-79
2022/01/10 11:20:45;;;;;;;;;50.00;46.75;;;;;4.33;85.19;101291.13;5028023;27;45604;-77
2022/01/10 11:23:11;;;;;;;;;44.50;43.50;;;;;4.31;84.74;101287.59;5030506;28;45548;-76
2022/01/10 11:25:40;;;;;;;;;77.67;65.33;;;;;4.32;85.09;101295.47;5029925;27;45521;-76